createdAt,value
2022-09-12T00:01:19.715Z,3.17
2022-09-12T00:03:47.109Z,3.10
2022-09-12T00:06:23.163Z,3.03
2022-09-12T00:08:50.860Z,3.25
2022-09-12T00:11:17.986Z,3.10
2022-09-12T00:13:45.106Z,3.35
2022-09-12T00:16:17.000Z,3.20
2022-09-12T00:18:46.232Z,3.25
2022-09-12T00:21:14.119Z,3.42
2022-09-12T00:23:41.226Z,3.22
2022-09-12T00:26:08.715Z,2.88
2022-09-12T00:28:36.879Z,3.17
2022-09-12T00:31:08.054Z,3.45
2022-09-12T00:33:35.704Z,2.95
2022-09-12T00:36:07.115Z,3.67
2022-09-12T00:38:35.920Z,3.20
2022-09-12T00:43:34.971Z,3.67
2022-09-12T00:46:22.308Z,3.15
2022-09-12T00:48:53.039Z,2.90
2022-09-12T00:51:20.663Z,3.10
2022-09-12T00:53:49.048Z,3.08
2022-09-12T00:56:17.171Z,3.22
2022-09-12T00:59:04.975Z,3.33
2022-09-12T01:01:32.909Z,3.42
2022-09-12T01:04:00.187Z,3.13
2022-09-12T01:06:33.739Z,3.03
2022-09-12T01:09:03.646Z,3.28
2022-09-12T01:11:31.768Z,3.20
2022-09-12T01:13:58.921Z,3.22
2022-09-12T01:16:26.077Z,3.00
2022-09-12T01:18:56.291Z,3.10
2022-09-12T01:21:23.351Z,3.33
2022-09-12T01:23:50.389Z,3.30
2022-09-12T01:26:23.286Z,3.53
2022-09-12T01:28:53.087Z,3.38
2022-09-12T01:31:27.559Z,3.20
2022-09-12T01:34:06.989Z,3.20
2022-09-12T01:36:46.073Z,3.10
2022-09-12T01:39:19.029Z,3.03
2022-09-12T01:41:53.999Z,3.80
2022-09-12T01:46:53.435Z,4.30
2022-09-12T01:49:23.563Z,3.22
2022-09-12T01:52:13.466Z,3.05
2022-09-12T01:54:57.050Z,3.40
2022-09-12T01:57:33.691Z,3.10
2022-09-12T02:00:02.264Z,3.08
2022-09-12T02:02:33.050Z,3.13
2022-09-12T02:05:09.411Z,3.17
2022-09-12T02:07:38.797Z,3.53
2022-09-12T02:10:29.124Z,3.20
2022-09-12T02:13:05.231Z,3.60
2022-09-12T02:15:38.571Z,3.40
2022-09-12T02:18:06.428Z,3.42
2022-09-12T02:20:51.548Z,3.05
2022-09-12T02:23:23.574Z,3.60
2022-09-12T02:25:54.058Z,3.60
2022-09-12T02:28:42.215Z,3.20
2022-09-12T02:31:18.237Z,3.70
2022-09-12T02:33:48.457Z,3.47
2022-09-12T02:36:21.959Z,3.20
2022-09-12T02:38:49.470Z,3.40
2022-09-12T02:41:21.127Z,3.85
2022-09-12T02:43:49.060Z,3.40
2022-09-12T02:46:38.115Z,3.90
2022-09-12T02:49:05.484Z,3.63
2022-09-12T02:51:33.022Z,3.28
2022-09-12T02:54:00.762Z,3.90
2022-09-12T02:56:29.010Z,4.00
2022-09-12T02:58:57.429Z,3.97
2022-09-12T03:01:27.689Z,3.58
2022-09-12T03:04:13.114Z,3.60
2022-09-12T03:06:40.259Z,3.70
2022-09-12T03:09:12.097Z,4.03
2022-09-12T03:11:45.768Z,3.72
2022-09-12T03:14:19.425Z,3.80
2022-09-12T03:16:52.842Z,3.80
2022-09-12T03:19:30.129Z,3.50
2022-09-12T03:22:10.054Z,3.42
2022-09-12T03:24:45.004Z,3.95
2022-09-12T03:32:07.492Z,3.47
2022-09-12T03:34:34.622Z,4.18
2022-09-12T03:37:01.779Z,3.97
2022-09-12T03:39:29.049Z,3.78
2022-09-12T03:41:56.347Z,4.05
2022-09-12T03:44:23.742Z,3.67
2022-09-12T03:46:51.100Z,4.85
2022-09-12T03:49:18.435Z,4.38
2022-09-12T03:51:45.698Z,3.83
2022-09-12T03:54:12.815Z,3.38
2022-09-12T03:56:41.217Z,3.58
2022-09-12T03:59:08.298Z,3.33
2022-09-12T04:01:35.451Z,3.70
2022-09-12T04:04:04.850Z,3.38
2022-09-12T04:06:32.000Z,3.58
2022-09-12T04:08:59.140Z,3.80
2022-09-12T04:11:26.299Z,4.00
2022-09-12T04:13:53.666Z,4.00
2022-09-12T04:16:21.033Z,4.45
2022-09-12T04:18:48.507Z,4.10
2022-09-12T04:21:17.279Z,4.50
2022-09-12T04:23:44.726Z,4.65
2022-09-12T04:26:13.779Z,4.53
2022-09-12T04:28:41.732Z,5.03
2022-09-12T04:31:20.062Z,4.53
2022-09-12T04:33:47.740Z,4.60
2022-09-12T04:36:16.610Z,4.70
2022-09-12T04:38:44.698Z,4.53
2022-09-12T04:41:15.722Z,4.60
2022-09-12T04:43:43.419Z,4.80
2022-09-12T04:46:11.558Z,4.20
2022-09-12T04:48:39.181Z,4.68
2022-09-12T04:51:10.907Z,4.13
2022-09-12T04:53:38.544Z,4.35
2022-09-12T04:56:05.879Z,3.88
2022-09-12T04:58:33.363Z,4.30
2022-09-12T05:01:19.408Z,4.43
2022-09-12T05:03:47.150Z,3.70
2022-09-12T05:06:15.547Z,4.18
2022-09-12T05:08:43.270Z,4.32
2022-09-12T05:11:15.297Z,4.50
2022-09-12T05:13:42.471Z,4.00
2022-09-12T05:16:11.527Z,4.38
2022-09-12T05:18:39.086Z,3.78
2022-09-12T05:21:08.008Z,4.10
2022-09-12T05:23:35.109Z,4.28
2022-09-12T05:26:02.764Z,4.25
2022-09-12T05:28:31.457Z,4.32
2022-09-12T05:31:01.897Z,4.47
2022-09-12T05:33:29.211Z,3.97
2022-09-12T05:35:56.311Z,4.45
2022-09-12T05:38:26.475Z,4.03
2022-09-12T05:40:53.540Z,4.53
2022-09-12T05:43:20.655Z,3.97
2022-09-12T05:45:47.735Z,3.72
2022-09-12T05:48:14.834Z,3.97
2022-09-12T05:50:42.452Z,4.10
2022-09-12T05:53:09.526Z,3.67
2022-09-12T05:55:36.900Z,3.80
2022-09-12T05:58:04.171Z,3.70
2022-09-12T06:00:33.542Z,3.97
2022-09-12T06:03:01.442Z,3.78
2022-09-12T06:05:28.529Z,3.78
2022-09-12T06:07:55.601Z,4.13
2022-09-12T06:10:23.184Z,3.47
2022-09-12T06:12:50.244Z,3.95
2022-09-12T06:15:18.292Z,4.38
2022-09-12T06:17:48.338Z,3.83
2022-09-12T06:20:20.342Z,3.92
2022-09-12T06:22:48.125Z,3.83
2022-09-12T06:25:15.303Z,3.70
2022-09-12T06:27:42.399Z,3.72
2022-09-12T06:30:09.822Z,3.70
2022-09-12T06:32:36.947Z,3.65
2022-09-12T06:35:05.483Z,3.75
2022-09-12T06:37:32.742Z,4.60
2022-09-12T06:40:02.030Z,3.60
2022-09-12T06:42:29.372Z,4.63
2022-09-12T06:44:56.483Z,4.55
2022-09-12T06:47:23.732Z,4.32
2022-09-12T06:49:51.330Z,4.03
2022-09-12T06:52:18.499Z,4.00
2022-09-12T06:54:46.587Z,4.20
2022-09-12T06:57:13.650Z,4.25
2022-09-12T06:59:41.145Z,3.58
2022-09-12T07:02:09.982Z,4.05
2022-09-12T07:04:37.129Z,4.18
2022-09-12T07:07:04.502Z,3.95
2022-09-12T07:09:31.582Z,3.80
2022-09-12T07:11:58.731Z,3.63
2022-09-12T07:14:26.089Z,3.80
2022-09-12T07:16:53.328Z,3.50
2022-09-12T07:19:20.454Z,3.63
2022-09-12T07:21:47.546Z,3.78
2022-09-12T07:24:14.646Z,3.67
2022-09-12T07:26:42.515Z,3.85
2022-09-12T07:29:35.542Z,3.20
2022-09-12T07:32:05.089Z,3.47
2022-09-12T07:34:32.571Z,3.60
2022-09-12T07:36:59.703Z,4.03
2022-09-12T07:39:26.770Z,4.00
2022-09-12T07:41:54.606Z,3.80
2022-09-12T07:44:22.069Z,4.28
2022-09-12T07:46:50.550Z,3.85
2022-09-12T07:49:17.631Z,3.85
2022-09-12T07:51:44.814Z,3.63
2022-09-12T07:54:12.351Z,3.70
2022-09-12T07:56:39.708Z,3.95
2022-09-12T07:59:07.044Z,3.92
2022-09-12T08:01:34.291Z,3.45
2022-09-12T08:04:01.612Z,3.75
2022-09-12T08:06:31.395Z,3.83
2022-09-12T08:08:59.107Z,3.72
2022-09-12T08:11:28.078Z,3.75
2022-09-12T08:13:57.157Z,3.80
2022-09-12T08:16:25.851Z,3.60
2022-09-12T08:18:53.034Z,3.97
2022-09-12T08:21:21.615Z,3.90
2022-09-12T08:23:52.155Z,4.18
2022-09-12T08:26:19.259Z,3.75
2022-09-12T08:28:46.834Z,4.07
2022-09-12T08:31:15.225Z,3.45
2022-09-12T08:33:42.380Z,3.83
2022-09-12T08:36:11.577Z,3.97
2022-09-12T08:38:39.771Z,4.20
2022-09-12T08:41:16.032Z,3.83
2022-09-12T08:44:01.954Z,3.10
2022-09-12T08:46:33.198Z,3.72
2022-09-12T08:49:01.569Z,3.88
2022-09-12T08:51:29.408Z,3.78
2022-09-12T08:53:57.579Z,4.20
2022-09-12T08:56:31.460Z,4.07
2022-09-12T08:58:59.396Z,3.72
2022-09-12T09:01:36.033Z,3.45
2022-09-12T09:04:24.555Z,4.10
2022-09-12T09:07:05.554Z,3.78
2022-09-12T09:09:47.653Z,3.78
2022-09-12T09:12:20.870Z,3.90
2022-09-12T09:15:09.260Z,3.90
2022-09-12T09:17:43.670Z,3.33
2022-09-12T09:20:32.403Z,3.38
2022-09-12T09:23:02.999Z,3.60
2022-09-12T09:25:39.262Z,3.72
2022-09-12T09:28:15.713Z,3.97
2022-09-12T09:30:44.962Z,3.78
2022-09-12T09:33:19.168Z,3.63
2022-09-12T09:35:48.836Z,3.70
2022-09-12T09:38:24.029Z,3.70
2022-09-12T09:40:57.814Z,3.72
2022-09-12T09:43:29.963Z,3.58
2022-09-12T09:45:57.925Z,3.33
2022-09-12T09:48:35.470Z,3.15
2022-09-12T09:51:03.732Z,3.50
2022-09-12T09:53:36.927Z,3.15
2022-09-12T09:56:08.255Z,3.85
2022-09-12T09:58:35.895Z,3.20
2022-09-12T10:01:07.157Z,3.22
2022-09-12T10:03:38.931Z,2.88
2022-09-12T10:06:22.991Z,2.88
2022-09-12T10:08:50.679Z,3.10
2022-09-12T10:11:17.976Z,2.58
2022-09-12T10:13:54.090Z,2.78
2022-09-12T10:16:22.934Z,3.10
2022-09-12T10:18:51.306Z,2.58
2022-09-12T10:21:30.678Z,2.88
2022-09-12T10:24:03.608Z,2.85
2022-09-12T10:26:35.076Z,2.70
2022-09-12T10:29:05.419Z,2.58
2022-09-12T10:32:02.162Z,2.47
2022-09-12T10:34:36.268Z,3.05
2022-09-12T10:37:07.610Z,2.50
2022-09-12T10:39:36.230Z,2.20
2022-09-12T10:42:04.348Z,2.75
2022-09-12T10:44:32.389Z,2.60
2022-09-12T10:47:00.374Z,2.50
2022-09-12T10:49:31.747Z,2.65
2022-09-12T10:52:17.274Z,2.50
2022-09-12T10:54:44.412Z,2.15
2022-09-12T10:57:23.555Z,2.30
2022-09-12T11:00:14.949Z,2.50
2022-09-12T11:02:44.988Z,2.42
2022-09-12T11:05:20.659Z,2.00
2022-09-12T11:07:53.533Z,2.53
2022-09-12T11:10:21.240Z,2.63
2022-09-12T11:12:54.433Z,2.28
2022-09-12T11:15:44.679Z,2.40
2022-09-12T11:18:18.496Z,2.47
2022-09-12T11:21:03.339Z,2.30
2022-09-12T11:23:56.774Z,2.60
2022-09-12T11:26:42.390Z,2.45
2022-09-12T11:29:18.671Z,2.40
2022-09-12T11:32:03.836Z,2.53
2022-09-12T11:34:39.826Z,2.30
2022-09-12T11:37:19.486Z,2.42
2022-09-12T11:39:52.276Z,2.38
2022-09-12T11:42:24.468Z,2.42
2022-09-12T11:44:56.736Z,2.47
2022-09-12T11:47:24.833Z,2.40
2022-09-12T11:49:52.343Z,2.45
2022-09-12T11:52:20.827Z,2.30
2022-09-12T11:55:14.308Z,2.40
2022-09-12T11:57:45.806Z,2.10
2022-09-12T12:00:15.980Z,2.35
2022-09-12T12:02:56.577Z,2.13
2022-09-12T12:05:29.975Z,2.45
2022-09-12T12:07:58.458Z,2.00
2022-09-12T12:10:28.131Z,2.17
2022-09-12T12:12:56.328Z,2.13
2022-09-12T12:15:25.070Z,2.00
2022-09-12T12:20:19.448Z,1.80
2022-09-12T12:22:53.693Z,2.17
2022-09-12T12:25:22.937Z,2.20
2022-09-12T12:27:59.435Z,1.95
2022-09-12T12:30:33.647Z,2.28
2022-09-12T12:33:20.799Z,2.20
2022-09-12T12:38:50.369Z,2.15
2022-09-12T12:41:17.597Z,2.38
2022-09-12T12:43:45.624Z,1.80
2022-09-12T12:46:17.171Z,2.28
2022-09-12T12:48:49.907Z,2.13
2022-09-12T12:51:23.529Z,2.17
2022-09-12T12:53:51.987Z,2.33
2022-09-12T12:56:27.413Z,2.22
2022-09-12T12:59:01.913Z,2.05
2022-09-12T13:01:29.830Z,2.08
2022-09-12T13:03:59.897Z,2.10
2022-09-12T13:06:32.660Z,2.33
2022-09-12T13:09:02.376Z,1.67
2022-09-12T13:11:31.718Z,2.05
2022-09-12T13:14:00.652Z,1.95
2022-09-12T13:16:41.265Z,2.00
2022-09-12T13:19:18.558Z,2.20
2022-09-12T13:22:02.271Z,2.05
2022-09-12T13:24:29.455Z,2.25
2022-09-12T13:26:57.701Z,2.13
2022-09-12T13:29:25.813Z,2.40
2022-09-12T13:32:00.683Z,2.17
2022-09-12T13:37:13.314Z,2.22
2022-09-12T13:39:50.436Z,2.00
2022-09-12T13:42:42.584Z,2.47
2022-09-12T13:45:15.910Z,2.20
2022-09-12T13:47:44.466Z,2.20
2022-09-12T13:50:23.444Z,2.28
2022-09-12T13:52:52.642Z,1.90
2022-09-12T13:55:42.778Z,2.30
2022-09-12T13:58:20.347Z,1.92
2022-09-12T14:00:48.083Z,1.90
2022-09-12T14:03:47.483Z,2.20
2022-09-12T14:08:49.018Z,2.05
2022-09-12T14:11:25.342Z,2.10
2022-09-12T14:13:52.755Z,2.00
2022-09-12T14:16:24.000Z,2.10
2022-09-12T14:18:51.866Z,1.90
2022-09-12T14:21:36.413Z,1.80
2022-09-12T14:24:05.580Z,2.08
2022-09-12T14:26:35.041Z,1.98
2022-09-12T14:29:02.610Z,1.88
2022-09-12T14:31:37.087Z,1.90
2022-09-12T14:34:10.924Z,1.80
2022-09-12T14:36:46.227Z,1.95
2022-09-12T14:39:32.991Z,1.90
2022-09-12T14:42:22.088Z,2.00
2022-09-12T14:45:01.083Z,1.83
2022-09-12T14:47:33.359Z,1.95
2022-09-12T14:50:00.505Z,1.75
2022-09-12T14:52:33.118Z,2.00
2022-09-12T14:55:04.983Z,2.10
2022-09-12T14:57:33.910Z,1.88
2022-09-12T15:00:16.043Z,2.05
2022-09-12T15:02:46.108Z,2.20
2022-09-12T15:05:13.157Z,1.98
2022-09-12T15:07:47.838Z,1.85
2022-09-12T15:10:25.250Z,2.10
2022-09-12T15:13:11.056Z,1.95
2022-09-12T15:15:39.011Z,2.00
2022-09-12T15:18:06.963Z,2.08
2022-09-12T15:20:38.460Z,2.03
2022-09-12T15:23:07.076Z,2.47
2022-09-12T15:25:34.455Z,2.00
2022-09-12T15:28:01.896Z,1.80
2022-09-12T15:30:29.032Z,1.95
2022-09-12T15:32:56.209Z,1.77
2022-09-12T15:35:25.612Z,1.90
2022-09-12T15:37:52.773Z,1.95
2022-09-12T15:40:20.179Z,1.73
2022-09-12T15:42:47.502Z,1.77
2022-09-12T15:45:22.499Z,2.00
2022-09-12T15:47:49.837Z,2.03
2022-09-12T15:50:16.950Z,1.85
2022-09-12T15:52:44.364Z,1.67
2022-09-12T15:55:37.836Z,1.67
2022-09-12T15:58:07.201Z,1.90
2022-09-12T16:00:34.587Z,1.90
2022-09-12T16:03:01.938Z,1.83
2022-09-12T16:05:29.603Z,2.10
2022-09-12T16:07:56.808Z,2.05
2022-09-12T16:10:29.683Z,1.85
2022-09-12T16:12:59.665Z,1.70
2022-09-12T16:15:27.268Z,2.17
2022-09-12T16:17:54.641Z,1.70
2022-09-12T16:20:24.373Z,2.03
2022-09-12T16:22:51.605Z,1.98
2022-09-12T16:25:21.092Z,1.80
2022-09-12T16:27:48.525Z,1.70
2022-09-12T16:30:15.926Z,1.90
2022-09-12T16:32:43.166Z,1.58
2022-09-12T16:35:10.475Z,1.80
2022-09-12T16:37:38.031Z,1.65
2022-09-12T16:40:06.144Z,1.80
2022-09-12T16:42:33.440Z,2.25
2022-09-12T16:45:00.553Z,1.85
2022-09-12T16:47:27.726Z,1.70
2022-09-12T16:49:54.821Z,1.95
2022-09-12T16:52:21.911Z,1.90
2022-09-12T16:54:49.231Z,1.70
2022-09-12T16:57:16.464Z,1.70
2022-09-12T16:59:43.554Z,1.80
2022-09-12T17:02:14.394Z,2.13
2022-09-12T17:04:41.967Z,2.38
2022-09-12T17:07:10.009Z,1.98
2022-09-12T17:09:37.126Z,2.47
2022-09-12T17:12:04.722Z,2.33
2022-09-12T17:14:31.826Z,3.35
2022-09-12T17:16:58.987Z,3.75
2022-09-12T17:19:28.085Z,3.70
2022-09-12T17:21:55.613Z,3.80
2022-09-12T17:24:23.130Z,3.90
2022-09-12T17:26:50.971Z,4.38
2022-09-12T17:29:18.460Z,3.72
2022-09-12T17:31:45.599Z,4.35
2022-09-12T17:34:14.613Z,3.90
2022-09-12T17:36:44.250Z,3.85
2022-09-12T17:39:12.144Z,3.67
2022-09-12T17:41:41.242Z,3.45
2022-09-12T17:44:09.654Z,3.33
2022-09-12T17:46:37.999Z,2.90
2022-09-12T17:49:06.690Z,2.95
2022-09-12T17:51:33.998Z,3.28
2022-09-12T17:54:11.824Z,3.40
2022-09-12T17:56:39.591Z,3.20
2022-09-12T17:59:08.256Z,2.55
2022-09-12T18:01:54.269Z,2.53
2022-09-12T18:04:21.510Z,2.78
2022-09-12T18:06:49.162Z,2.90
2022-09-12T18:09:21.145Z,2.55
2022-09-12T18:11:49.183Z,2.60
2022-09-12T18:14:17.211Z,2.55
2022-09-12T18:16:45.011Z,2.67
2022-09-12T18:19:12.239Z,2.40
2022-09-12T18:21:39.539Z,2.45
2022-09-12T18:24:07.040Z,2.55
2022-09-12T18:26:34.693Z,2.30
2022-09-12T18:29:01.857Z,2.42
2022-09-12T18:31:30.112Z,2.60
2022-09-12T18:33:59.640Z,2.53
2022-09-12T18:36:26.787Z,2.20
2022-09-12T18:38:53.926Z,2.50
2022-09-12T18:41:24.178Z,2.97
2022-09-12T18:43:55.458Z,2.75
2022-09-12T18:46:23.049Z,2.83
2022-09-12T18:48:50.566Z,2.70
2022-09-12T18:51:19.220Z,2.53
2022-09-12T18:53:51.992Z,2.75
2022-09-12T18:56:19.237Z,2.55
2022-09-12T18:58:50.041Z,2.70
2022-09-12T19:01:18.740Z,2.85
2022-09-12T19:08:40.373Z,3.05
2022-09-12T19:11:07.803Z,3.00
2022-09-12T19:13:35.829Z,3.10
2022-09-12T19:16:03.584Z,3.08
2022-09-12T19:18:34.008Z,2.67
2022-09-12T19:21:01.485Z,2.60
2022-09-12T19:23:28.607Z,2.70
2022-09-12T19:25:56.891Z,2.60
2022-09-12T19:28:24.063Z,2.95
2022-09-12T19:30:51.237Z,2.95
2022-09-12T19:33:20.997Z,3.17
2022-09-12T19:35:48.174Z,2.47
2022-09-12T19:38:15.755Z,2.38
2022-09-12T19:40:43.495Z,3.00
2022-09-12T19:43:10.699Z,3.60
2022-09-12T19:45:38.812Z,3.33
2022-09-12T19:48:05.902Z,3.83
2022-09-12T19:50:33.606Z,4.95
2022-09-12T19:53:00.701Z,4.75
2022-09-12T19:55:27.860Z,4.53
2022-09-12T19:57:55.112Z,4.28
2022-09-12T20:00:22.611Z,3.83
2022-09-12T20:02:51.711Z,3.83
2022-09-12T20:05:19.385Z,3.35
2022-09-12T20:07:46.668Z,3.05
2022-09-12T20:10:14.828Z,3.58
2022-09-12T20:12:42.091Z,3.30
2022-09-12T20:15:09.569Z,3.08
2022-09-12T20:17:36.787Z,3.50
2022-09-12T20:20:04.594Z,3.22
2022-09-12T20:22:31.756Z,3.10
2022-09-12T20:24:58.884Z,3.35
2022-09-12T20:27:26.699Z,3.03
2022-09-12T20:29:54.499Z,3.05
2022-09-12T20:32:22.410Z,3.15
2022-09-12T20:34:49.580Z,3.10
2022-09-12T20:37:16.731Z,3.10
2022-09-12T20:39:46.827Z,2.58
2022-09-12T20:42:17.360Z,3.13
2022-09-12T20:44:44.494Z,2.75
2022-09-12T20:47:11.684Z,3.22
2022-09-12T20:49:38.754Z,2.65
2022-09-12T20:52:05.912Z,2.83
2022-09-12T20:54:33.035Z,3.35
2022-09-12T20:57:00.158Z,3.30
2022-09-12T20:59:27.342Z,2.78
2022-09-12T21:01:54.608Z,3.17
2022-09-12T21:04:22.771Z,2.67
2022-09-12T21:06:50.087Z,3.10
2022-09-12T21:09:17.316Z,2.55
2022-09-12T21:11:44.450Z,2.88
2022-09-12T21:14:11.669Z,2.72
2022-09-12T21:16:38.797Z,3.88
2022-09-12T21:19:06.942Z,2.88
2022-09-12T21:21:34.036Z,2.97
2022-09-12T21:24:05.111Z,3.17
2022-09-12T21:26:34.439Z,2.95
2022-09-12T21:29:01.647Z,3.00
2022-09-12T21:31:28.797Z,3.40
2022-09-12T21:33:56.006Z,3.17
2022-09-12T21:36:24.335Z,2.40
2022-09-12T21:38:51.498Z,2.58
2022-09-12T21:41:18.699Z,3.15
2022-09-12T21:43:46.082Z,2.50
2022-09-12T21:46:13.707Z,2.45
2022-09-12T21:48:40.924Z,2.80
2022-09-12T21:51:08.072Z,3.03
2022-09-12T21:53:35.369Z,3.15
2022-09-12T21:56:03.780Z,2.83
2022-09-12T21:58:31.194Z,2.90
2022-09-12T22:00:59.294Z,2.83
2022-09-12T22:03:27.169Z,2.80
2022-09-12T22:05:58.219Z,2.70
2022-09-12T22:08:25.288Z,2.67
2022-09-12T22:10:52.467Z,3.30
2022-09-12T22:13:19.639Z,3.03
2022-09-12T22:15:50.892Z,3.17
2022-09-12T22:18:18.174Z,2.45
2022-09-12T22:20:45.789Z,2.97
2022-09-12T22:23:31.966Z,2.90
2022-09-12T22:26:02.252Z,3.33
2022-09-12T22:28:32.002Z,2.50
2022-09-12T22:30:59.656Z,3.08
2022-09-12T22:33:26.811Z,2.60
2022-09-12T22:35:53.971Z,2.90
2022-09-12T22:38:21.032Z,2.42
2022-09-12T22:40:48.160Z,2.70
2022-09-12T22:43:15.743Z,3.53
2022-09-12T22:45:42.908Z,2.45
2022-09-12T22:48:10.024Z,2.35
2022-09-12T22:50:37.279Z,2.70
2022-09-12T22:53:04.341Z,2.65
2022-09-12T22:55:31.473Z,2.50
2022-09-12T22:57:58.628Z,2.63
2022-09-12T23:00:28.004Z,2.60
2022-09-12T23:02:55.210Z,2.83
2022-09-12T23:05:22.667Z,2.47
2022-09-12T23:07:50.992Z,2.70
2022-09-12T23:10:18.152Z,2.88
2022-09-12T23:12:45.227Z,2.83
2022-09-12T23:15:12.485Z,2.97
2022-09-12T23:17:39.685Z,2.90
2022-09-12T23:20:06.988Z,2.90
2022-09-12T23:22:36.094Z,3.00
2022-09-12T23:25:03.468Z,3.05
2022-09-12T23:27:30.662Z,3.17
2022-09-12T23:29:57.748Z,3.10
2022-09-12T23:32:24.989Z,3.15
2022-09-12T23:34:52.927Z,3.08
2022-09-12T23:37:21.616Z,2.90
2022-09-12T23:39:49.688Z,3.25
2022-09-12T23:42:17.207Z,3.20
2022-09-12T23:44:44.374Z,3.25
2022-09-12T23:47:11.768Z,2.92
2022-09-12T23:49:38.834Z,4.03
2022-09-12T23:52:05.942Z,2.83
2022-09-12T23:54:33.152Z,2.90
2022-09-12T23:57:00.233Z,2.95
2022-09-12T23:59:27.353Z,2.85
